createdAt,value
2018-02-18T00:00:55.134Z,15.17
2018-02-18T00:03:28.166Z,16.13
2018-02-18T00:06:01.241Z,16.40
2018-02-18T00:08:35.262Z,13.47
2018-02-18T00:11:08.537Z,13.87
2018-02-18T00:13:41.521Z,15.70
2018-02-18T00:16:14.379Z,15.97
2018-02-18T00:18:46.769Z,15.20
2018-02-18T00:21:19.199Z,15.83
2018-02-18T00:23:51.653Z,15.17
2018-02-18T00:26:24.969Z,13.90
2018-02-18T00:28:57.570Z,17.70
2018-02-18T00:31:30.888Z,14.40
2018-02-18T00:34:03.453Z,16.10
2018-02-18T00:36:35.852Z,17.17
2018-02-18T00:39:09.345Z,16.43
2018-02-18T00:41:42.667Z,19.37
2018-02-18T00:44:15.961Z,13.47
2018-02-18T00:46:48.568Z,14.83
2018-02-18T00:49:21.053Z,13.40
2018-02-18T00:51:53.520Z,18.17
2018-02-18T00:54:26.138Z,16.03
2018-02-18T00:56:58.643Z,14.53
2018-02-18T00:59:31.213Z,19.80
2018-02-18T01:02:03.756Z,16.60
2018-02-18T01:04:36.533Z,16.27
2018-02-18T01:07:09.886Z,17.60
2018-02-18T01:09:42.835Z,17.27
2018-02-18T01:12:15.999Z,18.47
2018-02-18T01:14:49.011Z,16.53
2018-02-18T01:17:22.061Z,16.97
2018-02-18T01:19:55.997Z,15.90
2018-02-18T01:22:28.491Z,18.13
2018-02-18T01:25:01.653Z,18.23
2018-02-18T01:27:34.639Z,16.60
2018-02-18T01:30:07.125Z,16.53
2018-02-18T01:32:40.382Z,18.43
2018-02-18T01:35:13.110Z,19.30
2018-02-18T01:37:45.555Z,15.17
2018-02-18T01:40:18.169Z,14.40
2018-02-18T01:42:50.616Z,16.53
2018-02-18T01:45:23.158Z,16.13
2018-02-18T01:47:55.620Z,17.37
2018-02-18T01:50:36.995Z,17.13
2018-02-18T01:53:10.528Z,18.43
2018-02-18T01:55:43.313Z,19.30
2018-02-18T01:58:17.511Z,16.93
2018-02-18T02:00:50.157Z,18.60
2018-02-18T02:03:22.759Z,16.07
2018-02-18T02:05:56.053Z,18.50
2018-02-18T02:08:28.996Z,18.37
2018-02-18T02:11:01.657Z,17.40
2018-02-18T02:13:34.193Z,17.90
2018-02-18T02:16:06.659Z,17.20
2018-02-18T02:18:39.184Z,22.87
2018-02-18T02:21:11.555Z,18.33
2018-02-18T02:23:44.861Z,18.77
2018-02-18T02:26:17.759Z,19.10
2018-02-18T02:28:50.842Z,19.33
2018-02-18T02:31:23.421Z,20.87
2018-02-18T02:33:56.501Z,20.17
2018-02-18T02:36:29.828Z,19.90
2018-02-18T02:39:02.563Z,17.10
2018-02-18T02:41:35.134Z,19.50
2018-02-18T02:44:07.619Z,16.57
2018-02-18T02:46:40.123Z,22.00
2018-02-18T02:49:12.728Z,20.17
2018-02-18T02:51:45.276Z,24.43
2018-02-18T02:54:17.805Z,18.03
2018-02-18T02:56:50.401Z,16.37
2018-02-18T02:59:23.810Z,20.83
2018-02-18T03:01:56.509Z,16.80
2018-02-18T03:04:28.995Z,24.90
2018-02-18T03:07:01.349Z,17.73
2018-02-18T03:09:33.713Z,21.00
2018-02-18T03:12:06.240Z,19.00
2018-02-18T03:14:38.813Z,15.40
2018-02-18T03:17:11.472Z,17.20
2018-02-18T03:19:43.915Z,18.33
2018-02-18T03:22:16.295Z,17.00
2018-02-18T03:24:48.917Z,17.87
2018-02-18T03:27:21.433Z,19.47
2018-02-18T03:29:54.111Z,18.07
2018-02-18T03:32:26.903Z,20.77
2018-02-18T03:35:00.092Z,18.93
2018-02-18T03:37:34.232Z,17.77
2018-02-18T03:40:07.456Z,18.17
2018-02-18T03:42:41.215Z,18.33
2018-02-18T03:45:14.497Z,18.50
2018-02-18T03:47:48.641Z,21.03
2018-02-18T03:50:21.432Z,18.97
2018-02-18T03:52:53.895Z,20.40
2018-02-18T03:55:27.008Z,18.07
2018-02-18T03:58:00.525Z,21.13
2018-02-18T04:00:33.388Z,18.60
2018-02-18T04:03:05.941Z,19.00
2018-02-18T04:05:38.359Z,19.20
2018-02-18T04:08:11.867Z,17.50
2018-02-18T04:10:44.327Z,18.90
2018-02-18T04:13:16.741Z,19.33
2018-02-18T04:15:49.119Z,21.20
2018-02-18T04:18:23.278Z,21.60
2018-02-18T04:20:56.271Z,19.33
2018-02-18T04:23:29.497Z,25.17
2018-02-18T04:26:02.335Z,22.70
2018-02-18T04:28:35.645Z,19.57
2018-02-18T04:31:08.650Z,16.30
2018-02-18T04:33:41.349Z,18.73
2018-02-18T04:36:13.917Z,17.40
2018-02-18T04:38:47.264Z,16.97
2018-02-18T04:41:20.179Z,19.57
2018-02-18T04:43:53.797Z,19.27
2018-02-18T04:46:26.240Z,18.50
2018-02-18T04:48:59.553Z,16.87
2018-02-18T04:51:33.353Z,23.20
2018-02-18T04:54:06.285Z,19.83
2018-02-18T04:56:39.111Z,15.17
2018-02-18T04:59:11.578Z,17.77
2018-02-18T05:01:44.370Z,26.57
2018-02-18T05:04:17.061Z,19.00
2018-02-18T05:06:49.434Z,20.40
2018-02-18T05:09:22.674Z,28.77
2018-02-18T05:11:56.180Z,21.00
2018-02-18T05:14:28.619Z,19.83
2018-02-18T05:17:00.929Z,20.10
2018-02-18T05:19:33.278Z,27.30
2018-02-18T05:22:05.557Z,19.63
2018-02-18T05:24:38.049Z,21.13
2018-02-18T05:27:11.119Z,20.07
2018-02-18T05:29:43.915Z,19.60
2018-02-18T05:32:17.166Z,22.57
2018-02-18T05:34:49.994Z,20.03
2018-02-18T05:37:22.461Z,19.60
2018-02-18T05:39:55.030Z,19.57
2018-02-18T05:42:28.298Z,21.03
2018-02-18T05:45:01.311Z,25.17
2018-02-18T05:47:34.602Z,21.67
2018-02-18T05:50:07.510Z,23.60
2018-02-18T05:52:39.911Z,20.30
2018-02-18T05:55:12.739Z,25.30
2018-02-18T05:57:47.455Z,22.40
2018-02-18T06:00:20.860Z,21.73
2018-02-18T06:02:53.182Z,17.53
2018-02-18T06:05:26.261Z,27.93
2018-02-18T06:07:59.663Z,21.13
2018-02-18T06:10:32.234Z,24.20
2018-02-18T06:13:05.273Z,26.50
2018-02-18T06:15:38.577Z,23.17
2018-02-18T06:18:11.299Z,21.47
2018-02-18T06:20:43.801Z,29.50
2018-02-18T06:23:16.190Z,27.80
2018-02-18T06:25:48.733Z,26.17
2018-02-18T06:28:22.273Z,21.60
2018-02-18T06:30:55.612Z,31.73
2018-02-18T06:33:28.109Z,27.00
2018-02-18T06:36:00.576Z,29.07
2018-02-18T06:38:33.154Z,27.77
2018-02-18T06:41:05.503Z,28.30
2018-02-18T06:43:37.803Z,30.40
2018-02-18T06:46:10.408Z,26.87
2018-02-18T06:48:43.000Z,23.57
2018-02-18T06:51:15.803Z,30.80
2018-02-18T06:53:48.387Z,31.20
2018-02-18T06:56:21.057Z,25.53
2018-02-18T06:58:54.260Z,26.60
2018-02-18T07:01:27.139Z,22.30
2018-02-18T07:03:59.681Z,26.50
2018-02-18T07:06:32.401Z,29.37
2018-02-18T07:09:06.413Z,27.60
2018-02-18T07:11:39.572Z,24.47
2018-02-18T07:14:12.414Z,27.03
2018-02-18T07:16:45.491Z,28.93
2018-02-18T07:19:18.779Z,30.97
2018-02-18T07:21:52.762Z,31.33
2018-02-18T07:24:25.623Z,32.73
2018-02-18T07:26:58.149Z,27.20
2018-02-18T07:29:30.613Z,29.67
2018-02-18T07:32:02.988Z,30.77
2018-02-18T07:34:35.422Z,28.10
2018-02-18T07:37:07.918Z,31.13
2018-02-18T07:39:41.294Z,30.57
2018-02-18T07:42:14.533Z,25.70
2018-02-18T07:44:47.251Z,30.97
2018-02-18T07:47:19.846Z,28.43
2018-02-18T07:49:52.327Z,25.10
2018-02-18T07:52:25.554Z,25.33
2018-02-18T07:54:58.089Z,30.70
2018-02-18T07:58:00.180Z,30.67
2018-02-18T08:00:33.657Z,27.93
2018-02-18T08:03:07.679Z,27.07
2018-02-18T08:05:41.069Z,29.67
2018-02-18T08:08:13.695Z,31.33
2018-02-18T08:10:46.030Z,29.97
2018-02-18T08:13:18.710Z,23.80
2018-02-18T08:15:51.184Z,29.30
2018-02-18T08:18:25.608Z,24.53
2018-02-18T08:20:58.901Z,37.33
2018-02-18T08:23:31.803Z,27.80
2018-02-18T08:26:04.970Z,28.63
2018-02-18T08:28:37.482Z,22.50
2018-02-18T08:31:09.825Z,25.50
2018-02-18T08:33:43.038Z,22.70
2018-02-18T08:36:15.401Z,25.40
2018-02-18T08:38:47.862Z,24.67
2018-02-18T08:41:20.336Z,26.97
2018-02-18T08:43:53.691Z,23.30
2018-02-18T08:46:27.911Z,24.17
2018-02-18T08:49:00.662Z,25.10
2018-02-18T08:51:33.976Z,22.30
2018-02-18T08:54:06.668Z,19.10
2018-02-18T08:56:40.215Z,24.47
2018-02-18T08:59:12.640Z,27.40
2018-02-18T09:01:44.998Z,23.47
2018-02-18T09:04:18.505Z,25.63
2018-02-18T09:06:51.868Z,21.00
2018-02-18T09:09:25.633Z,26.50
2018-02-18T09:11:58.972Z,24.40
2018-02-18T09:14:31.850Z,23.50
2018-02-18T09:17:04.435Z,28.00
2018-02-18T09:19:37.020Z,25.73
2018-02-18T09:22:09.620Z,24.87
2018-02-18T09:24:42.334Z,18.20
2018-02-18T09:27:14.664Z,24.40
2018-02-18T09:29:47.410Z,20.67
2018-02-18T09:32:20.215Z,19.93
2018-02-18T09:34:53.527Z,22.80
2018-02-18T09:37:27.343Z,21.80
2018-02-18T09:40:00.407Z,24.63
2018-02-18T09:42:32.891Z,27.07
2018-02-18T09:45:05.877Z,25.57
2018-02-18T09:47:39.622Z,24.93
2018-02-18T09:50:12.115Z,28.70
2018-02-18T09:52:45.506Z,28.40
2018-02-18T09:55:18.984Z,26.90
2018-02-18T09:57:53.343Z,28.43
2018-02-18T10:00:25.874Z,25.83
2018-02-18T10:02:58.557Z,27.90
2018-02-18T10:05:31.889Z,29.40
2018-02-18T10:08:05.172Z,29.07
2018-02-18T10:10:37.624Z,23.63
2018-02-18T10:13:10.908Z,23.60
2018-02-18T10:15:43.675Z,30.17
2018-02-18T10:18:18.120Z,28.37
2018-02-18T10:20:51.404Z,27.80
2018-02-18T10:23:24.063Z,32.03
2018-02-18T10:25:57.380Z,27.27
2018-02-18T10:28:30.245Z,25.83
2018-02-18T10:31:02.937Z,26.10
2018-02-18T10:33:35.407Z,24.10
2018-02-18T10:36:09.665Z,25.13
2018-02-18T10:38:43.161Z,25.67
2018-02-18T10:41:16.705Z,31.40
2018-02-18T10:43:50.109Z,31.73
2018-02-18T10:46:23.088Z,23.83
2018-02-18T10:48:55.612Z,26.97
2018-02-18T10:51:29.084Z,23.13
2018-02-18T10:54:02.107Z,32.00
2018-02-18T10:56:35.358Z,30.67
2018-02-18T10:59:08.661Z,29.93
2018-02-18T11:01:41.867Z,28.37
2018-02-18T11:04:15.223Z,29.50
2018-02-18T11:06:47.963Z,29.43
2018-02-18T11:09:20.587Z,26.00
2018-02-18T11:11:53.186Z,27.83
2018-02-18T11:14:25.619Z,23.70
2018-02-18T11:16:59.358Z,26.97
2018-02-18T11:19:32.548Z,25.67
2018-02-18T11:22:06.009Z,26.80
2018-02-18T11:24:38.745Z,28.70
2018-02-18T11:27:13.181Z,23.80
2018-02-18T11:29:45.861Z,21.43
2018-02-18T11:32:21.089Z,23.40
2018-02-18T11:34:53.505Z,28.70
2018-02-18T11:37:26.214Z,24.73
2018-02-18T11:40:00.028Z,28.10
2018-02-18T11:42:32.708Z,26.63
2018-02-18T11:45:05.543Z,27.00
2018-02-18T11:47:39.427Z,24.20
2018-02-18T11:50:13.679Z,26.77
2018-02-18T11:52:46.992Z,26.87
2018-02-18T11:55:20.277Z,25.00
2018-02-18T11:57:53.634Z,26.30
2018-02-18T12:00:26.494Z,23.50
2018-02-18T12:03:00.087Z,24.37
2018-02-18T12:05:32.981Z,19.47
2018-02-18T12:08:07.344Z,24.83
2018-02-18T12:10:40.345Z,21.83
2018-02-18T12:13:12.863Z,19.60
2018-02-18T12:15:46.142Z,20.00
2018-02-18T12:18:19.983Z,18.37
2018-02-18T12:20:53.262Z,17.73
2018-02-18T12:23:26.562Z,18.60
2018-02-18T12:25:59.510Z,18.03
2018-02-18T12:28:31.956Z,17.27
2018-02-18T12:31:04.556Z,17.80
2018-02-18T12:33:37.914Z,18.23
2018-02-18T12:36:11.274Z,19.63
2018-02-18T12:38:43.766Z,17.93
2018-02-18T12:41:16.082Z,18.53
2018-02-18T12:43:48.635Z,19.30
2018-02-18T12:46:22.690Z,19.50
2018-02-18T12:48:55.652Z,20.60
2018-02-18T12:51:28.066Z,19.57
2018-02-18T12:54:00.650Z,19.70
2018-02-18T12:56:33.195Z,20.53
2018-02-18T12:59:05.772Z,18.90
2018-02-18T13:01:38.368Z,21.60
2018-02-18T13:04:10.921Z,17.30
2018-02-18T13:06:43.834Z,17.80
2018-02-18T13:09:16.961Z,20.50
2018-02-18T13:11:49.636Z,17.10
2018-02-18T13:14:23.200Z,14.73
2018-02-18T13:16:56.107Z,16.33
2018-02-18T13:19:29.513Z,21.23
2018-02-18T13:22:02.742Z,15.10
2018-02-18T13:24:35.149Z,18.37
2018-02-18T13:27:07.702Z,19.43
2018-02-18T13:29:40.259Z,21.03
2018-02-18T13:32:13.564Z,22.03
2018-02-18T13:34:46.275Z,17.50
2018-02-18T13:37:19.432Z,16.30
2018-02-18T13:39:52.195Z,17.60
2018-02-18T13:42:24.835Z,16.90
2018-02-18T13:44:58.134Z,13.93
2018-02-18T13:47:31.281Z,16.07
2018-02-18T13:50:04.197Z,17.30
2018-02-18T13:52:37.486Z,19.10
2018-02-18T13:55:09.976Z,19.30
2018-02-18T13:57:42.515Z,20.00
2018-02-18T14:00:15.069Z,21.60
2018-02-18T14:02:47.685Z,23.70
2018-02-18T14:05:20.972Z,20.37
2018-02-18T14:07:54.560Z,20.80
2018-02-18T14:10:26.927Z,21.10
2018-02-18T14:12:59.531Z,23.30
2018-02-18T14:15:32.103Z,20.80
2018-02-18T14:18:05.375Z,21.50
2018-02-18T14:20:38.479Z,18.80
2018-02-18T14:23:11.450Z,20.10
2018-02-18T14:25:44.926Z,16.50
2018-02-18T14:28:19.611Z,16.33
2018-02-18T14:30:52.032Z,16.10
2018-02-18T14:33:24.891Z,15.80
2018-02-18T14:35:57.322Z,12.33
2018-02-18T14:38:30.390Z,14.87
2018-02-18T14:41:03.147Z,14.20
2018-02-18T14:43:54.771Z,13.07
2018-02-18T14:46:46.728Z,12.93
2018-02-18T14:49:38.438Z,11.50
2018-02-18T14:52:30.920Z,12.90
2018-02-18T14:55:35.045Z,16.20
2018-02-18T15:01:13.823Z,15.57
2018-02-18T15:03:46.539Z,13.57
2018-02-18T15:06:19.053Z,13.47
2018-02-18T15:08:51.662Z,14.27
2018-02-18T15:11:24.247Z,15.57
2018-02-18T15:13:57.495Z,11.50
2018-02-18T15:16:30.232Z,10.53
2018-02-18T15:19:02.759Z,13.90
2018-02-18T15:21:35.288Z,12.67
2018-02-18T15:24:08.643Z,13.50
2018-02-18T15:26:41.458Z,13.43
2018-02-18T15:29:14.391Z,12.90
2018-02-18T15:31:47.511Z,14.13
2018-02-18T15:34:20.146Z,12.20
2018-02-18T15:36:54.243Z,12.33
2018-02-18T15:39:27.553Z,13.53
2018-02-18T15:42:00.654Z,12.37
2018-02-18T15:44:34.071Z,12.37
2018-02-18T15:47:06.753Z,13.60
2018-02-18T15:49:39.205Z,14.20
2018-02-18T15:52:13.206Z,15.13
2018-02-18T15:54:49.459Z,14.10
2018-02-18T15:57:22.980Z,16.13
2018-02-18T15:59:56.404Z,15.13
2018-02-18T16:02:30.392Z,16.73
2018-02-18T16:05:03.787Z,10.20
2018-02-18T16:07:37.064Z,12.37
2018-02-18T16:10:10.856Z,12.20
2018-02-18T16:12:44.070Z,10.80
2018-02-18T16:15:17.309Z,11.07
2018-02-18T16:17:50.812Z,14.03
2018-02-18T16:20:24.083Z,10.90
2018-02-18T16:22:57.346Z,12.10
2018-02-18T16:25:30.148Z,15.17
2018-02-18T16:28:02.662Z,12.93
2018-02-18T16:30:35.266Z,11.40
2018-02-18T16:33:08.141Z,17.77
2018-02-18T16:35:41.447Z,15.00
2018-02-18T16:38:14.021Z,14.83
2018-02-18T16:40:46.751Z,17.83
2018-02-18T16:43:19.992Z,18.30
2018-02-18T16:45:53.314Z,12.73
2018-02-18T16:48:27.181Z,15.67
2018-02-18T16:50:59.733Z,13.47
2018-02-18T16:53:33.141Z,13.50
2018-02-18T16:56:06.181Z,17.30
2018-02-18T16:58:38.811Z,15.60
2018-02-18T17:01:11.371Z,17.10
2018-02-18T17:03:45.504Z,16.70
2018-02-18T17:06:18.453Z,15.93
2018-02-18T17:08:50.898Z,13.77
2018-02-18T17:11:24.244Z,16.80
2018-02-18T17:13:56.899Z,17.90
2018-02-18T17:16:30.227Z,16.70
2018-02-18T17:19:03.067Z,19.73
2018-02-18T17:21:36.438Z,19.87
2018-02-18T17:24:09.686Z,19.83
2018-02-18T17:26:43.084Z,16.50
2018-02-18T17:29:16.495Z,18.80
2018-02-18T17:31:49.138Z,17.43
2018-02-18T17:34:21.912Z,17.87
2018-02-18T17:40:07.453Z,19.93
2018-02-18T17:42:40.879Z,19.10
2018-02-18T17:45:14.296Z,20.13
2018-02-18T17:47:46.942Z,16.93
2018-02-18T17:50:20.140Z,19.57
2018-02-18T17:52:52.652Z,19.13
2018-02-18T17:55:26.026Z,19.10
2018-02-18T17:57:59.705Z,19.97
2018-02-18T18:00:33.830Z,21.93
2018-02-18T18:03:07.150Z,20.37
2018-02-18T18:05:40.453Z,19.87
2018-02-18T18:08:13.599Z,23.90
2018-02-18T18:10:46.352Z,20.87
2018-02-18T18:13:19.976Z,23.33
2018-02-18T18:15:53.636Z,19.53
2018-02-18T18:18:27.043Z,22.30
2018-02-18T18:21:01.141Z,21.37
2018-02-18T18:23:34.739Z,17.03
2018-02-18T18:26:09.563Z,22.57
2018-02-18T18:28:43.682Z,23.10
2018-02-18T18:31:17.272Z,19.90
2018-02-18T18:33:51.178Z,20.50
2018-02-18T18:36:25.395Z,22.00
2018-02-18T18:38:59.913Z,24.77
2018-02-18T18:41:35.900Z,22.77
2018-02-18T18:44:11.824Z,21.03
2018-02-18T18:46:46.212Z,19.67
2018-02-18T18:49:22.010Z,21.53
2018-02-18T18:51:57.729Z,23.87
2018-02-18T18:54:33.398Z,24.63
2018-02-18T18:57:08.503Z,25.43
2018-02-18T18:59:43.923Z,19.30
2018-02-18T19:02:18.740Z,20.33
2018-02-18T19:04:54.019Z,23.45
2018-02-18T19:07:29.395Z,22.17
2018-02-18T19:10:06.231Z,23.03
2018-02-18T19:12:41.466Z,23.10
2018-02-18T19:15:16.371Z,23.80
2018-02-18T19:17:51.757Z,21.77
2018-02-18T19:20:28.097Z,24.93
2018-02-18T19:23:03.927Z,23.67
2018-02-18T19:25:39.868Z,23.33
2018-02-18T19:28:16.289Z,26.37
2018-02-18T19:30:51.122Z,20.97
2018-02-18T19:33:37.769Z,22.87
2018-02-18T19:36:13.400Z,20.23
2018-02-18T19:38:49.287Z,21.97
2018-02-18T19:41:24.151Z,20.80
2018-02-18T19:44:00.947Z,22.50
2018-02-18T19:46:36.888Z,21.73
2018-02-18T19:49:11.892Z,22.90
2018-02-18T19:51:47.477Z,24.80
2018-02-18T19:54:23.210Z,21.37
2018-02-18T19:56:58.732Z,23.27
2018-02-18T19:59:34.547Z,24.00
2018-02-18T20:02:10.363Z,26.70
2018-02-18T20:04:46.010Z,22.67
2018-02-18T20:07:21.384Z,26.87
2018-02-18T20:09:56.993Z,26.00
2018-02-18T20:12:32.363Z,20.50
2018-02-18T20:15:08.198Z,27.87
2018-02-18T20:17:43.423Z,25.47
2018-02-18T20:20:18.542Z,23.07
2018-02-18T20:22:53.951Z,25.40
2018-02-18T20:25:29.085Z,22.23
2018-02-18T20:28:05.002Z,26.23
2018-02-18T20:30:41.053Z,25.67
2018-02-18T20:33:16.133Z,22.60
2018-02-18T20:35:52.492Z,24.97
2018-02-18T20:38:27.940Z,24.73
2018-02-18T20:41:04.227Z,22.23
2018-02-18T20:43:40.556Z,27.70
2018-02-18T20:46:17.028Z,25.20
2018-02-18T20:48:52.315Z,24.73
2018-02-18T20:51:28.050Z,27.97
2018-02-18T20:54:03.139Z,23.80
2018-02-18T20:56:38.962Z,25.30
2018-02-18T20:59:14.910Z,25.17
2018-02-18T21:01:50.612Z,26.97
2018-02-18T21:04:25.952Z,23.30
2018-02-18T21:07:01.829Z,22.90
2018-02-18T21:09:37.778Z,29.03
2018-02-18T21:12:14.488Z,24.20
2018-02-18T21:14:50.065Z,27.90
2018-02-18T21:17:26.059Z,28.40
2018-02-18T21:20:01.100Z,27.90
2018-02-18T21:22:37.744Z,22.40
2018-02-18T21:25:13.004Z,23.70
2018-02-18T21:27:48.462Z,26.03
2018-02-18T21:30:23.566Z,26.00
2018-02-18T21:32:58.522Z,27.53
2018-02-18T21:35:33.498Z,29.23
2018-02-18T21:38:07.461Z,27.80
2018-02-18T21:40:41.773Z,26.90
2018-02-18T21:43:15.377Z,24.60
2018-02-18T21:45:48.769Z,25.03
2018-02-18T21:48:22.162Z,26.60
2018-02-18T21:50:55.550Z,26.27
2018-02-18T21:53:28.755Z,26.80
2018-02-18T21:56:01.538Z,27.33
2018-02-18T21:58:34.792Z,27.90
2018-02-18T22:01:08.076Z,26.40
2018-02-18T22:03:40.707Z,25.37
2018-02-18T22:06:13.285Z,24.83
2018-02-18T22:08:45.826Z,23.87
2018-02-18T22:11:18.289Z,25.33
2018-02-18T22:13:50.975Z,28.53
2018-02-18T22:16:24.206Z,27.40
2018-02-18T22:18:56.584Z,29.80
2018-02-18T22:21:29.180Z,24.20
2018-02-18T22:24:01.919Z,19.37
2018-02-18T22:26:35.335Z,29.10
2018-02-18T22:29:08.758Z,27.60
2018-02-18T22:31:41.629Z,24.30
2018-02-18T22:34:15.045Z,25.43
2018-02-18T22:36:47.893Z,22.33
2018-02-18T22:39:20.820Z,25.00
2018-02-18T22:41:53.499Z,26.17
2018-02-18T22:44:27.297Z,23.47
2018-02-18T22:46:59.719Z,23.87
2018-02-18T22:49:32.850Z,24.00
2018-02-18T22:52:05.889Z,26.80
2018-02-18T22:54:38.748Z,21.87
2018-02-18T22:57:11.237Z,19.43
2018-02-18T22:59:43.768Z,25.87
2018-02-18T23:02:16.253Z,18.80
2018-02-18T23:04:49.617Z,20.80
2018-02-18T23:07:22.086Z,20.20
2018-02-18T23:09:55.204Z,23.13
2018-02-18T23:12:27.701Z,19.93
2018-02-18T23:15:00.171Z,19.80
2018-02-18T23:17:33.516Z,20.63
2018-02-18T23:20:05.910Z,17.83
2018-02-18T23:22:38.279Z,17.67
2018-02-18T23:25:10.843Z,22.10
2018-02-18T23:27:45.181Z,15.60
2018-02-18T23:30:17.760Z,18.67
2018-02-18T23:32:50.523Z,17.33
2018-02-18T23:35:23.083Z,19.10
2018-02-18T23:37:55.740Z,18.83
2018-02-18T23:40:28.907Z,18.13
2018-02-18T23:43:01.750Z,21.63
2018-02-18T23:45:34.358Z,18.07
2018-02-18T23:48:06.649Z,18.90
2018-02-18T23:50:39.820Z,19.37
2018-02-18T23:53:12.348Z,17.47
2018-02-18T23:55:45.330Z,25.10
2018-02-18T23:58:18.297Z,17.70
